Time Latitude Longitude Accuracy (66% radius in meters) Altitude (meters) Speed (km/hour) Bearing (degrees) Battery (%) GPS flag
09:51:59 55.737894 37.299033 5 182 0 326.74493408203 73 1 delete
09:51:47 55.737891 37.299037 10 182 0 326.74493408203 73 1 delete
09:51:34 55.737892 37.299045 5 177 0 326.74493408203 73 1 delete
09:51:21 55.737892 37.299055 5 179 0 326.74493408203 73 1 delete
09:51:09 55.737897 37.299054 5 184 0 77.338897705078 73 1 delete
09:50:57 55.737897 37.299051 5 178 0 77.338897705078 73 1 delete
09:50:44 55.737896 37.299050 5 174 0 77.338897705078 73 1 delete
09:50:31 55.737883 37.299044 5 172 0 326.33776855469 73 1 delete
09:50:19 55.737882 37.299036 5 171 0 340.49328613281 73 1 delete
09:50:07 55.737886 37.299032 10 173 0 340.49328613281 73 1 delete
09:49:54 55.737883 37.299029 5 179 0 237.51951599121 73 1 delete
09:49:41 55.737879 37.299033 5 177 0 237.51951599121 73 1 delete
09:49:30 55.737879 37.299036 10 176 0.36040326952934 237.51951599121 73 1 delete
09:49:17 55.737872 37.299042 5 174 0 308.69097900391 73 1 delete
09:49:04 55.737876 37.299023 10 170 0 344.71157836914 76 1 delete
09:48:51 55.737876 37.299023 5 170 0 344.71157836914 76 1 delete
09:48:38 55.737866 37.299023 5 173 0 183.70788574219 76 1 delete
09:48:26 55.737872 37.299021 5 175 0 207.9582824707 76 1 delete
09:48:14 55.737872 37.299021 5 171 0 207.9582824707 76 1 delete
09:48:01 55.737876 37.299027 5 177 0 78.529670715332 76 1 delete
09:47:49 55.737875 37.299029 5 180 0 157.15190124512 76 1 delete
09:47:37 55.737873 37.299030 5 181 0 157.15190124512 76 1 delete
09:47:24 55.737874 37.299027 5 180 0 356.98080444336 76 1 delete
09:47:12 55.737885 37.299031 5 180 0 346.57958984375 76 1 delete
09:46:59 55.737885 37.299032 5 177 0 346.57958984375 76 1 delete
09:46:47 55.737886 37.299031 5 174 0 346.57958984375 76 1 delete
09:46:35 55.737886 37.299031 5 179 0 346.57958984375 76 1 delete
09:46:22 55.737872 37.299042 5 178 0 134.30792236328 76 1 delete
09:46:09 55.737871 37.299040 10 175 0 98.271430969238 76 1 delete
09:45:56 55.737871 37.299040 5 182 0 98.271430969238 76 1 delete
09:45:43 55.737870 37.299031 5 166 0 134.43814086914 76 1 delete
09:45:31 55.737861 37.299000 5 175 0 244.66578674316 76 1 delete
09:45:16 55.737864 37.299060 5 177 0 151.32965087891 76 1 delete
09:45:03 55.737876 37.299038 10 171 0 193.8180847168 76 1 delete
09:44:50 55.737877 37.299037 10 176 0 193.8180847168 76 1 delete
09:44:38 55.737883 37.299037 5 173 0 193.8180847168 76 1 delete
09:44:25 55.737887 37.299022 5 171 0 173.34811401367 76 1 delete
09:44:13 55.737886 37.299020 10 173 0 136.90420532227 76 1 delete
09:44:01 55.737873 37.299010 5 175 0 149.29064941406 76 1 delete
09:43:48 55.737885 37.298992 5 179 0 291.26620483398 76 1 delete
09:43:36 55.737884 37.298994 10 176 0 338.16421508789 76 1 delete
09:43:22 55.737871 37.299006 5 180 0.34898501634598 174.7322845459 76 1 delete
09:43:07 55.737868 37.299033 5 173 0 323.88745117188 76 1 delete
09:42:55 55.737858 37.299030 5 175 0 162.29371643066 76 1 delete
09:42:42 55.737857 37.299034 5 177 0 162.29371643066 76 1 delete
09:42:30 55.737862 37.299030 5 174 0 290.99807739258 76 1 delete
09:42:18 55.737892 37.299035 5 174 0 35.753326416016 76 1 delete
09:42:05 55.737881 37.299044 5 171 0.31206887960434 165.84608459473 76 1 delete
09:41:53 55.737896 37.299035 10 170 0 209.20895385742 76 1 delete
09:41:41 55.737883 37.299030 5 170 0 0.074790142476559 76 1 delete